Time;durP1;ratioP1;P1;durP2;ratioP2;P2;SDS_P1;SDS_P2;PMS_P1;PMS_P2;Temp;Humidity;BMP_temperature;BMP_pressure;BME280_temperature;BME280_humidity;BME280_pressure;Samples;Min_cycle;Max_cycle;Signal;HPM_P1;HPM_P2
2023/10/28 00:01:14;;;;;;;14.05;2.72;;;21.20;76.60;;;;;;6276860;22;20000;-90
2023/10/28 00:03:41;;;;;;;21.05;4.18;;;21.20;76.60;;;;;;6249959;22;20098;-92
2023/10/28 00:06:09;;;;;;;16.85;3.92;;;21.20;76.80;;;;;;6277915;22;20000;-90
2023/10/28 00:08:36;;;;;;;18.05;3.25;;;21.20;77.30;;;;;;6280087;22;19999;-90
2023/10/28 00:11:04;;;;;;;16.40;3.38;;;21.30;77.10;;;;;;6261491;22;20016;-91
2023/10/28 00:13:30;;;;;;;17.23;2.92;;;21.30;76.90;;;;;;6249087;23;20000;-91
2023/10/28 00:15:57;;;;;;;13.13;3.00;;;21.20;76.90;;;;;;6247010;23;20031;-92
2023/10/28 00:18:24;;;;;;;13.50;2.83;;;21.20;77.00;;;;;;6248286;23;20032;-92
2023/10/28 00:20:50;;;;;;;13.52;2.72;;;21.30;77.20;;;;;;6254702;23;20052;-91
2023/10/28 00:23:15;;;;;;;19.00;3.30;;;21.20;77.20;;;;;;6250348;23;20007;-91
2023/10/28 00:25:42;;;;;;;12.60;3.13;;;21.20;77.20;;;;;;6248398;23;20062;-91
2023/10/28 00:28:08;;;;;;;16.05;3.28;;;21.20;77.50;;;;;;6247935;23;20007;-93
2023/10/28 00:30:33;;;;;;;17.67;3.03;;;21.10;77.40;;;;;;6248089;23;20441;-90
2023/10/28 00:33:00;;;;;;;16.33;3.03;;;21.10;77.50;;;;;;6249156;23;20023;-90
2023/10/28 00:35:28;;;;;;;14.13;3.20;;;21.10;77.30;;;;;;6249801;23;20004;-91
2023/10/28 00:37:53;;;;;;;22.38;3.17;;;21.10;77.20;;;;;;6221327;23;20425;-92
2023/10/28 00:40:20;;;;;;;16.90;2.78;;;21.10;77.20;;;;;;6248587;23;20000;-90
2023/10/28 00:42:46;;;;;;;11.80;2.35;;;21.00;77.00;;;;;;6255954;23;20000;-91
2023/10/28 00:45:13;;;;;;;12.25;2.78;;;21.00;77.00;;;;;;6253795;23;20095;-90
2023/10/28 00:47:41;;;;;;;18.00;3.80;;;21.00;77.10;;;;;;6251294;23;20349;-90
2023/10/28 00:50:16;;;;;;;18.08;3.05;;;20.90;76.90;;;;;;6250506;23;20000;-90
2023/10/28 00:52:47;;;;;;;16.65;3.40;;;20.90;77.60;;;;;;6248869;23;20024;-91
2023/10/28 00:55:14;;;;;;;17.63;3.03;;;20.90;77.30;;;;;;6248672;23;20000;-91
2023/10/28 00:57:42;;;;;;;13.32;2.80;;;20.90;77.20;;;;;;6248410;23;20004;-92
2023/10/28 01:00:10;;;;;;;15.40;3.20;;;20.90;77.40;;;;;;6253637;23;20000;-90
2023/10/28 01:02:38;;;;;;;13.90;2.78;;;20.90;77.60;;;;;;6221344;23;20418;-91
2023/10/28 01:05:05;;;;;;;17.05;3.10;;;20.90;77.50;;;;;;6247699;23;20012;-89
2023/10/28 01:07:32;;;;;;;15.80;3.28;;;20.90;77.40;;;;;;6251389;23;20075;-90
2023/10/28 01:09:58;;;;;;;16.02;3.97;;;20.80;77.50;;;;;;6251890;23;20346;-91
2023/10/28 01:12:26;;;;;;;12.45;2.78;;;20.80;77.50;;;;;;6248579;23;20008;-88
2023/10/28 01:14:52;;;;;;;14.40;2.58;;;20.80;77.50;;;;;;6248058;23;20087;-89
2023/10/28 01:17:21;;;;;;;13.82;2.90;;;20.70;77.50;;;;;;6221711;23;20012;-91
2023/10/28 01:19:47;;;;;;;13.52;2.80;;;20.70;77.60;;;;;;6223116;23;20056;-89
2023/10/28 01:22:13;;;;;;;15.60;3.08;;;20.70;78.10;;;;;;6248938;23;20004;-91
2023/10/28 01:24:39;;;;;;;14.85;2.55;;;20.70;77.60;;;;;;6247346;23;20063;-90
2023/10/28 01:27:05;;;;;;;14.77;2.83;;;20.70;77.40;;;;;;6247121;23;20023;-91
2023/10/28 01:29:32;;;;;;;14.68;2.47;;;20.70;77.50;;;;;;6247825;23;20334;-91
2023/10/28 01:31:58;;;;;;;18.25;3.22;;;20.70;77.20;;;;;;6247608;23;20011;-90
2023/10/28 01:34:24;;;;;;;16.20;3.08;;;20.70;77.20;;;;;;6255768;23;20004;-88
2023/10/28 01:36:50;;;;;;;11.63;2.47;;;20.70;77.20;;;;;;6256626;23;20019;-87
2023/10/28 01:39:16;;;;;;;16.33;2.95;;;20.70;77.10;;;;;;6247339;23;20011;-90
2023/10/28 01:41:42;;;;;;;12.85;2.50;;;20.70;77.00;;;;;;6247362;23;20052;-91
2023/10/28 01:44:08;;;;;;;17.02;2.50;;;20.70;76.80;;;;;;6246876;23;20143;-90
2023/10/28 01:46:34;;;;;;;17.35;2.15;;;20.70;77.00;;;;;;6253965;23;20075;-90
2023/10/28 01:49:00;;;;;;;11.55;2.72;;;20.70;77.10;;;;;;6249011;23;20382;-91
2023/10/28 01:51:26;;;;;;;15.75;3.03;;;20.70;77.20;;;;;;6246770;23;20414;-89
2023/10/28 01:53:52;;;;;;;13.68;2.70;;;20.70;77.20;;;;;;6247004;23;19996;-90
2023/10/28 01:56:17;;;;;;;14.45;2.63;;;20.70;77.20;;;;;;6247372;23;20058;-91
2023/10/28 01:58:43;;;;;;;14.85;2.60;;;20.70;77.30;;;;;;6246758;23;20003;-90
2023/10/28 02:01:09;;;;;;;11.90;2.60;;;20.70;77.20;;;;;;6246885;23;20007;-90
2023/10/28 02:03:35;;;;;;;14.63;2.60;;;20.70;77.20;;;;;;6246649;23;20334;-89
2023/10/28 02:06:01;;;;;;;11.73;2.50;;;20.70;77.00;;;;;;6248279;23;20084;-90
2023/10/28 02:08:26;;;;;;;10.93;2.38;;;20.80;77.10;;;;;;6249878;23;20000;-90
2023/10/28 02:10:52;;;;;;;12.77;2.38;;;20.80;77.10;;;;;;6250777;23;20020;-89
2023/10/28 02:13:18;;;;;;;11.55;2.25;;;20.80;77.20;;;;;;6255482;23;20007;-88
2023/10/28 02:15:51;;;;;;;13.10;2.42;;;20.80;77.20;;;;;;6259968;23;20004;-86
2023/10/28 02:18:18;;;;;;;12.15;2.60;;;20.80;77.70;;;;;;6256806;23;20003;-89
2023/10/28 02:20:46;;;;;;;14.13;2.38;;;20.80;77.10;;;;;;6249985;23;20075;-88
2023/10/28 02:23:14;;;;;;;14.38;2.72;;;20.80;77.70;;;;;;6219862;23;20016;-89
2023/10/28 02:25:43;;;;;;;13.80;2.20;;;20.80;77.30;;;;;;6246869;23;20020;-89
2023/10/28 02:28:12;;;;;;;16.05;2.97;;;20.80;77.20;;;;;;6223666;23;20080;-90
2023/10/28 02:30:39;;;;;;;18.08;3.08;;;20.80;77.30;;;;;;6247526;23;20000;-90
2023/10/28 02:33:05;;;;;;;11.73;2.72;;;20.70;77.20;;;;;;6250891;23;19996;-91
2023/10/28 02:35:30;;;;;;;14.50;2.53;;;20.70;77.40;;;;;;6257293;23;20033;-89
2023/10/28 02:37:56;;;;;;;13.93;2.92;;;20.70;77.40;;;;;;6257909;23;20411;-89
2023/10/28 02:40:22;;;;;;;15.27;2.78;;;20.60;77.20;;;;;;6259164;23;20004;-90
2023/10/28 02:42:47;;;;;;;12.10;2.80;;;20.60;77.20;;;;;;6254851;23;19996;-90
2023/10/28 02:45:14;;;;;;;13.52;2.67;;;20.60;77.30;;;;;;6255015;23;20008;-89
2023/10/28 02:47:40;;;;;;;14.70;2.53;;;20.60;77.40;;;;;;6256810;23;20508;-89
2023/10/28 02:50:08;;;;;;;13.15;2.38;;;20.70;77.40;;;;;;6254411;23;20000;-91
2023/10/28 02:52:33;;;;;;;13.73;3.60;;;20.70;77.10;;;;;;6220976;23;20311;-88
2023/10/28 02:54:59;;;;;;;16.42;2.72;;;20.60;76.80;;;;;;6247492;23;20077;-89
2023/10/28 02:57:25;;;;;;;10.43;2.65;;;20.70;76.80;;;;;;6247608;23;20087;-89
2023/10/28 02:59:51;;;;;;;11.52;2.33;;;20.60;76.30;;;;;;6249159;23;20027;-89
2023/10/28 03:02:17;;;;;;;12.70;3.10;;;20.60;76.60;;;;;;6221420;23;20088;-88
2023/10/28 03:04:42;;;;;;;19.58;3.30;;;20.60;76.50;;;;;;6246930;23;20008;-89
2023/10/28 03:07:08;;;;;;;11.70;2.75;;;20.60;76.30;;;;;;6246778;23;20031;-88
2023/10/28 03:09:34;;;;;;;15.30;2.55;;;20.60;76.40;;;;;;6246580;23;20007;-88
2023/10/28 03:12:00;;;;;;;20.10;3.10;;;20.60;76.50;;;;;;6246835;23;20012;-89
2023/10/28 03:14:25;;;;;;;19.60;3.00;;;20.60;76.70;;;;;;6254553;23;20386;-87
2023/10/28 03:16:51;;;;;;;15.38;2.63;;;20.60;76.60;;;;;;6246640;23;20311;-88
2023/10/28 03:19:17;;;;;;;13.65;2.70;;;20.60;76.70;;;;;;6247136;23;20047;-88
2023/10/28 03:21:43;;;;;;;16.77;2.63;;;20.70;77.00;;;;;;6246486;23;20422;-89
2023/10/28 03:24:09;;;;;;;13.05;2.65;;;20.70;76.90;;;;;;6245879;23;20035;-89
2023/10/28 03:26:35;;;;;;;12.77;2.65;;;20.60;77.00;;;;;;6246469;23;19996;-88
2023/10/28 03:29:01;;;;;;;17.35;3.22;;;20.70;77.10;;;;;;6250086;23;20061;-89
2023/10/28 03:31:27;;;;;;;15.90;2.72;;;20.60;77.40;;;;;;6230552;23;20004;-89
2023/10/28 03:33:54;;;;;;;18.65;3.53;;;20.70;77.50;;;;;;6247809;23;20011;-86
2023/10/28 03:36:19;;;;;;;12.52;2.60;;;20.70;77.50;;;;;;6247979;23;20011;-87
2023/10/28 03:38:45;;;;;;;18.88;3.60;;;20.70;77.50;;;;;;6246163;23;20000;-89
2023/10/28 03:41:12;;;;;;;10.77;2.67;;;20.70;77.50;;;;;;6245457;23;20004;-87
2023/10/28 03:43:38;;;;;;;18.80;3.65;;;20.70;77.30;;;;;;6246382;23;20008;-88
2023/10/28 03:46:04;;;;;;;16.90;3.05;;;20.70;77.40;;;;;;6246150;23;20023;-88
2023/10/28 03:48:31;;;;;;;10.65;2.45;;;20.70;77.50;;;;;;6250519;23;19996;-85
2023/10/28 03:51:02;;;;;;;13.43;2.97;;;20.60;77.40;;;;;;6265335;23;20072;-86
2023/10/28 03:53:28;;;;;;;10.85;2.35;;;20.60;77.70;;;;;;6246082;23;20477;-89
2023/10/28 03:55:54;;;;;;;14.68;3.10;;;20.60;77.70;;;;;;6246163;23;19996;-89
2023/10/28 03:58:20;;;;;;;16.10;3.00;;;20.60;77.60;;;;;;6245594;23;20010;-88
2023/10/28 04:00:48;;;;;;;14.68;2.83;;;20.60;77.40;;;;;;6246254;23;20082;-87
2023/10/28 04:03:14;;;;;;;13.05;2.85;;;20.50;77.20;;;;;;6246369;23;20307;-88
2023/10/28 04:05:40;;;;;;;15.30;2.95;;;20.50;77.20;;;;;;6246528;23;20004;-89
2023/10/28 04:08:05;;;;;;;15.98;2.63;;;20.50;77.00;;;;;;6247357;23;20000;-90
2023/10/28 04:10:31;;;;;;;13.85;3.53;;;20.40;76.90;;;;;;6245458;23;20016;-89
2023/10/28 04:12:57;;;;;;;18.75;3.38;;;20.40;76.90;;;;;;6245655;23;20454;-89
2023/10/28 04:15:22;;;;;;;19.67;3.13;;;20.40;76.70;;;;;;6246130;23;20015;-89
2023/10/28 04:17:48;;;;;;;17.10;2.75;;;20.40;76.80;;;;;;6247797;23;20039;-87
2023/10/28 04:20:14;;;;;;;16.90;3.13;;;20.30;76.80;;;;;;6256594;23;20007;-87
2023/10/28 04:22:40;;;;;;;15.38;3.00;;;20.30;76.70;;;;;;6251764;23;20008;-88
2023/10/28 04:25:06;;;;;;;12.77;2.45;;;20.20;76.80;;;;;;6249253;23;20040;-87
2023/10/28 04:27:33;;;;;;;16.58;2.40;;;20.20;76.80;;;;;;6249236;23;20010;-86
2023/10/28 04:29:58;;;;;;;15.30;2.92;;;20.20;76.90;;;;;;6245632;23;20306;-87
2023/10/28 04:32:24;;;;;;;14.02;2.72;;;20.10;76.80;;;;;;6245469;23;20008;-85
2023/10/28 04:34:51;;;;;;;17.98;2.63;;;20.10;76.60;;;;;;6246092;23;20012;-88
2023/10/28 04:37:17;;;;;;;13.05;2.75;;;20.10;76.60;;;;;;6245868;23;20059;-88
2023/10/28 04:39:42;;;;;;;14.43;2.78;;;20.00;76.30;;;;;;6250561;23;20000;-87
2023/10/28 04:42:08;;;;;;;20.58;3.33;;;20.00;76.30;;;;;;6256273;23;19997;-88
2023/10/28 04:44:34;;;;;;;12.27;2.50;;;20.00;76.20;;;;;;6251551;23;20008;-87
2023/10/28 04:47:01;;;;;;;11.68;3.08;;;20.00;76.30;;;;;;6245711;23;20080;-86
2023/10/28 04:49:28;;;;;;;12.20;3.20;;;20.00;76.10;;;;;;6245744;23;20012;-87
2023/10/28 04:51:54;;;;;;;11.80;2.40;;;19.90;75.80;;;;;;6218955;23;20015;-87
2023/10/28 04:54:21;;;;;;;9.88;2.17;;;19.90;75.90;;;;;;6245794;23;20019;-87
2023/10/28 04:56:46;;;;;;;12.55;2.40;;;19.90;75.60;;;;;;6245333;23;19996;-88
2023/10/28 04:59:12;;;;;;;17.90;2.50;;;19.90;75.80;;;;;;6245440;23;20090;-89
2023/10/28 05:01:38;;;;;;;21.02;3.53;;;19.90;75.60;;;;;;6245028;23;20000;-88
2023/10/28 05:04:04;;;;;;;15.65;3.08;;;19.90;75.50;;;;;;6245182;23;20007;-88
2023/10/28 05:06:30;;;;;;;15.10;2.92;;;19.90;75.50;;;;;;6245076;23;20088;-87
2023/10/28 05:08:56;;;;;;;15.95;2.72;;;19.90;75.30;;;;;;6245388;23;20098;-88
2023/10/28 05:11:21;;;;;;;14.98;2.83;;;19.80;75.10;;;;;;6250202;23;20080;-88
2023/10/28 05:13:47;;;;;;;13.45;2.55;;;19.80;75.20;;;;;;6247823;23;20004;-87
2023/10/28 05:16:13;;;;;;;15.10;2.83;;;19.80;75.20;;;;;;6247659;23;20059;-87
2023/10/28 05:18:39;;;;;;;12.25;2.60;;;19.70;75.00;;;;;;6247736;23;20035;-89
2023/10/28 05:21:06;;;;;;;12.38;2.55;;;19.70;75.10;;;;;;6247195;23;20391;-88
2023/10/28 05:23:31;;;;;;;11.10;2.42;;;19.70;75.10;;;;;;6253055;23;20035;-87
2023/10/28 05:25:57;;;;;;;15.90;3.05;;;19.70;75.10;;;;;;6267299;23;20004;-86
2023/10/28 05:28:23;;;;;;;9.70;3.00;;;19.70;75.10;;;;;;6248708;23;20000;-84
2023/10/28 05:30:49;;;;;;;9.63;2.47;;;19.70;75.00;;;;;;6248064;23;20039;-87
2023/10/28 05:33:14;;;;;;;16.70;3.70;;;19.70;74.90;;;;;;6248914;23;20075;-87
2023/10/28 05:35:40;;;;;;;14.88;4.03;;;19.70;74.90;;;;;;6249104;23;20004;-90
2023/10/28 05:38:09;;;;;;;22.52;3.08;;;19.70;74.80;;;;;;6249090;23;20031;-89
2023/10/28 05:40:34;;;;;;;12.20;2.90;;;19.70;75.00;;;;;;6252275;23;20000;-88
2023/10/28 05:43:00;;;;;;;14.40;3.00;;;19.70;74.90;;;;;;6252318;23;20000;-87
2023/10/28 05:45:26;;;;;;;10.88;2.30;;;19.60;75.10;;;;;;6250360;23;20008;-88
2023/10/28 05:47:52;;;;;;;17.45;3.22;;;19.60;75.20;;;;;;6221278;23;20004;-88
2023/10/28 05:50:18;;;;;;;10.82;2.83;;;19.60;75.20;;;;;;6249212;23;20004;-90
2023/10/28 05:52:44;;;;;;;12.50;2.63;;;19.50;75.20;;;;;;6248437;23;20484;-87
2023/10/28 05:55:12;;;;;;;18.48;3.13;;;19.50;75.20;;;;;;6251863;23;20334;-87
2023/10/28 05:57:39;;;;;;;13.07;2.90;;;19.50;75.60;;;;;;6253142;23;20103;-85
2023/10/28 06:00:10;;;;;;;12.50;3.08;;;19.50;75.20;;;;;;6248364;23;20024;-88
2023/10/28 06:02:39;;;;;;;16.90;3.20;;;19.50;75.50;;;;;;6248379;23;20003;-89
2023/10/28 06:05:06;;;;;;;22.30;4.15;;;19.50;75.10;;;;;;6247717;23;20426;-88
2023/10/28 06:07:32;;;;;;;16.15;3.13;;;19.50;75.20;;;;;;6248278;23;20417;-87
2023/10/28 06:09:58;;;;;;;16.67;4.32;;;19.50;75.20;;;;;;6254376;23;19999;-87
2023/10/28 06:12:25;;;;;;;17.25;3.35;;;19.50;75.40;;;;;;6261272;23;20389;-88
2023/10/28 06:14:51;;;;;;;15.77;3.53;;;19.50;75.50;;;;;;6248399;23;20016;-88
2023/10/28 06:17:17;;;;;;;23.08;3.83;;;19.50;75.60;;;;;;6221201;23;20073;-89
2023/10/28 06:19:43;;;;;;;19.08;3.67;;;19.60;75.30;;;;;;6250997;23;20357;-88
2023/10/28 06:22:12;;;;;;;13.68;3.35;;;19.60;75.20;;;;;;6261385;23;19996;-86
2023/10/28 06:24:39;;;;;;;12.93;2.78;;;19.70;75.20;;;;;;6251479;23;20083;-84
2023/10/28 06:27:05;;;;;;;13.77;3.47;;;19.70;74.90;;;;;;6259386;23;20035;-88
2023/10/28 06:29:31;;;;;;;19.63;3.85;;;19.70;74.70;;;;;;6238924;23;20031;-85
2023/10/28 06:31:58;;;;;;;13.20;3.17;;;19.80;74.80;;;;;;6257921;23;19996;-87
2023/10/28 06:34:27;;;;;;;15.40;3.60;;;19.80;74.80;;;;;;6250028;23;20315;-88
2023/10/28 06:36:54;;;;;;;18.15;3.70;;;19.90;74.50;;;;;;6221455;23;20015;-88
2023/10/28 06:39:20;;;;;;;11.40;3.38;;;20.00;74.40;;;;;;6251225;23;20000;-88
2023/10/28 06:41:45;;;;;;;14.98;2.83;;;20.10;74.40;;;;;;6251241;23;20000;-88
2023/10/28 06:44:11;;;;;;;12.30;3.28;;;20.20;74.20;;;;;;6248336;23;20008;-89
2023/10/28 06:46:37;;;;;;;13.07;2.90;;;20.40;74.10;;;;;;6247835;23;19997;-87
2023/10/28 06:49:02;;;;;;;15.38;3.72;;;20.50;73.80;;;;;;6247575;23;20011;-87
2023/10/28 06:51:28;;;;;;;15.75;3.17;;;20.60;73.60;;;;;;6250144;23;20015;-89
2023/10/28 06:53:54;;;;;;;14.93;4.05;;;20.70;73.50;;;;;;6251324;23;20066;-89
2023/10/28 06:56:20;;;;;;;11.65;3.67;;;20.80;73.30;;;;;;6253753;23;20004;-88
2023/10/28 06:58:45;;;;;;;13.13;3.30;;;20.90;73.10;;;;;;6261243;22;20002;-87
2023/10/28 07:01:11;;;;;;;16.73;3.97;;;21.00;73.10;;;;;;6264168;23;20000;-87
2023/10/28 07:03:37;;;;;;;11.30;3.22;;;21.10;73.10;;;;;;6224153;23;20019;-88
2023/10/28 07:06:04;;;;;;;17.23;3.40;;;21.20;73.20;;;;;;6251628;23;20058;-88
2023/10/28 07:08:30;;;;;;;11.40;3.03;;;21.30;73.00;;;;;;6249897;23;20062;-81
2023/10/28 07:10:57;;;;;;;9.38;2.70;;;21.30;73.00;;;;;;6247713;23;20088;-84
2023/10/28 07:13:22;;;;;;;13.40;3.15;;;21.40;73.10;;;;;;6246024;23;20080;-85
2023/10/28 07:15:48;;;;;;;16.05;2.78;;;21.40;72.60;;;;;;6246377;23;20075;-84
2023/10/28 07:18:14;;;;;;;19.50;3.17;;;21.50;72.80;;;;;;6246519;23;20457;-81
2023/10/28 07:20:40;;;;;;;14.60;3.03;;;21.60;72.90;;;;;;6247271;23;20004;-80
2023/10/28 07:23:06;;;;;;;13.73;2.95;;;21.70;72.90;;;;;;6245653;23;20398;-82
2023/10/28 07:25:32;;;;;;;17.20;3.20;;;21.80;72.90;;;;;;6247217;23;20042;-85
2023/10/28 07:27:58;;;;;;;13.05;3.15;;;21.90;72.80;;;;;;6247918;23;20012;-85
2023/10/28 07:30:24;;;;;;;12.27;3.30;;;21.90;72.70;;;;;;6250959;23;20000;-83
2023/10/28 07:32:50;;;;;;;18.27;3.65;;;22.00;72.80;;;;;;6249215;23;20023;-84
2023/10/28 07:35:19;;;;;;;22.98;3.97;;;22.00;72.60;;;;;;6247764;23;20434;-90
2023/10/28 07:37:44;;;;;;;14.68;3.35;;;22.00;72.50;;;;;;6248808;23;20015;-82
2023/10/28 07:40:13;;;;;;;16.48;3.90;;;22.00;73.30;;;;;;6248510;23;20031;-88
2023/10/28 07:42:40;;;;;;;11.73;3.55;;;22.00;72.80;;;;;;6247020;23;20039;-82
2023/10/28 07:45:06;;;;;;;14.70;3.50;;;22.00;72.70;;;;;;6245266;23;20008;-79
2023/10/28 07:47:32;;;;;;;18.15;4.05;;;22.00;72.90;;;;;;6245588;23;20079;-86
2023/10/28 07:49:57;;;;;;;15.70;2.63;;;22.00;72.60;;;;;;6248661;23;20007;-86
2023/10/28 07:52:23;;;;;;;15.98;3.30;;;22.00;72.60;;;;;;6245703;23;20011;-88
2023/10/28 07:54:49;;;;;;;12.80;3.20;;;22.00;72.70;;;;;;6249825;23;20079;-87
2023/10/28 07:57:14;;;;;;;11.75;2.95;;;22.00;72.40;;;;;;6248151;23;19996;-86
2023/10/28 07:59:40;;;;;;;16.05;3.33;;;21.90;72.40;;;;;;6247867;23;20012;-86
2023/10/28 08:02:06;;;;;;;17.90;3.08;;;22.00;72.60;;;;;;6246755;23;20307;-87
2023/10/28 08:04:31;;;;;;;10.13;2.67;;;22.00;72.30;;;;;;6247663;23;20023;-83
2023/10/28 08:06:57;;;;;;;12.73;2.72;;;22.00;73.10;;;;;;6245546;23;20004;-83
2023/10/28 08:09:23;;;;;;;12.77;3.40;;;22.00;72.60;;;;;;6245623;23;20032;-83
2023/10/28 08:11:50;;;;;;;15.45;3.55;;;22.00;72.70;;;;;;6245562;23;20012;-90
2023/10/28 08:14:16;;;;;;;12.75;3.50;;;22.00;72.60;;;;;;6247038;23;20402;-86
2023/10/28 08:16:42;;;;;;;15.27;3.67;;;22.00;72.80;;;;;;6244947;23;19996;-82
2023/10/28 08:19:08;;;;;;;13.38;3.25;;;22.00;72.80;;;;;;6244510;23;20311;-82
2023/10/28 08:21:34;;;;;;;15.88;4.20;;;22.00;72.60;;;;;;6246587;23;20023;-85
2023/10/28 08:24:00;;;;;;;18.67;3.85;;;22.00;72.70;;;;;;6245138;23;20015;-79
2023/10/28 08:26:26;;;;;;;16.33;2.58;;;22.10;72.70;;;;;;6245108;23;20012;-85
2023/10/28 08:28:52;;;;;;;16.15;3.10;;;22.10;72.60;;;;;;6245180;23;20078;-85
2023/10/28 08:31:18;;;;;;;12.00;3.17;;;22.20;72.60;;;;;;6245337;23;20004;-86
2023/10/28 08:33:44;;;;;;;15.35;3.35;;;22.20;72.60;;;;;;6249399;23;20068;-86
2023/10/28 08:36:10;;;;;;;11.93;2.97;;;22.20;72.20;;;;;;6222845;23;20476;-85
2023/10/28 08:38:37;;;;;;;13.10;3.67;;;22.30;73.00;;;;;;6245020;23;20004;-83
2023/10/28 08:41:03;;;;;;;14.35;2.92;;;22.30;72.50;;;;;;6244615;23;19996;-81
2023/10/28 08:43:31;;;;;;;12.05;2.55;;;22.30;72.30;;;;;;6217224;23;20044;-76
2023/10/28 08:45:57;;;;;;;16.33;3.05;;;22.30;71.90;;;;;;6244656;23;20078;-84
2023/10/28 08:48:23;;;;;;;13.52;3.38;;;22.40;72.10;;;;;;6219876;23;20434;-86
2023/10/28 08:50:59;;;;;;;14.25;2.90;;;22.40;71.90;;;;;;6246725;23;20004;-87
2023/10/28 08:53:25;;;;;;;15.60;3.17;;;22.40;71.90;;;;;;6245634;23;20003;-88
2023/10/28 08:55:52;;;;;;;14.68;3.03;;;22.50;72.00;;;;;;6248096;23;20004;-89
2023/10/28 08:58:19;;;;;;;18.33;3.60;;;22.60;72.00;;;;;;6250306;23;19997;-88
2023/10/28 09:00:47;;;;;;;15.15;3.55;;;22.80;71.70;;;;;;6249015;23;20079;-89
2023/10/28 09:03:15;;;;;;;12.30;2.80;;;22.90;71.60;;;;;;6250446;23;20512;-89
2023/10/28 09:05:41;;;;;;;14.77;3.30;;;23.00;71.10;;;;;;6258207;23;20442;-89
2023/10/28 09:08:07;;;;;;;11.05;2.35;;;23.00;70.80;;;;;;6267891;23;20015;-86
2023/10/28 09:10:34;;;;;;;13.40;2.80;;;23.00;70.40;;;;;;6249911;23;20459;-89
2023/10/28 09:13:06;;;;;;;14.45;3.70;;;23.00;70.30;;;;;;6249310;23;20005;-88
2023/10/28 09:15:32;;;;;;;13.18;2.90;;;23.10;70.00;;;;;;6249596;23;20083;-88
2023/10/28 09:18:00;;;;;;;11.25;3.17;;;23.20;69.90;;;;;;6223780;23;20453;-88
2023/10/28 09:20:26;;;;;;;13.73;2.92;;;23.20;70.10;;;;;;6254512;23;20398;-89
2023/10/28 09:22:52;;;;;;;15.60;3.03;;;23.30;70.10;;;;;;6252192;23;20064;-89
2023/10/28 09:25:18;;;;;;;13.77;2.83;;;23.40;70.30;;;;;;6250381;23;20059;-89
2023/10/28 09:27:45;;;;;;;11.50;2.13;;;23.40;70.70;;;;;;6249830;23;20005;-89
2023/10/28 09:30:11;;;;;;;12.85;2.42;;;23.50;69.60;;;;;;6249308;23;20008;-91
2023/10/28 09:32:38;;;;;;;11.52;2.83;;;23.80;69.50;;;;;;6249503;23;20016;-91
2023/10/28 09:35:05;;;;;;;13.10;2.78;;;24.00;69.40;;;;;;6249469;23;20004;-87
2023/10/28 09:37:34;;;;;;;10.43;2.22;;;24.00;69.10;;;;;;6248540;23;20043;-90
2023/10/28 09:40:02;;;;;;;10.27;2.00;;;24.00;68.70;;;;;;6250754;23;20008;-91
2023/10/28 09:42:31;;;;;;;11.82;2.20;;;24.00;68.90;;;;;;6250737;23;19999;-91
2023/10/28 09:45:01;;;;;;;9.20;2.45;;;24.00;68.50;;;;;;6250249;23;20478;-89
2023/10/28 09:47:41;;;;;;;10.75;2.45;;;24.00;68.00;;;;;;6255280;23;20008;-90
2023/10/28 09:50:09;;;;;;;13.20;2.67;;;23.90;67.90;;;;;;6250575;23;20108;-89
2023/10/28 09:52:37;;;;;;;10.65;2.70;;;23.70;68.50;;;;;;6253024;23;20423;-89
2023/10/28 09:55:13;;;;;;;13.15;2.30;;;23.60;68.40;;;;;;6250751;23;20007;-91
2023/10/28 09:57:40;;;;;;;9.60;2.30;;;23.70;68.60;;;;;;6251276;23;20003;-89
2023/10/28 10:00:18;;;;;;;9.73;1.95;;;23.70;68.90;;;;;;6251691;23;20500;-90
2023/10/28 10:03:08;;;;;;;10.93;2.38;;;23.70;68.40;;;;;;6252602;23;20485;-89
2023/10/28 10:05:43;;;;;;;13.98;2.47;;;23.70;67.30;;;;;;6263937;23;20012;-88
2023/10/28 10:08:22;;;;;;;11.57;2.30;;;23.70;68.50;;;;;;6252964;23;20627;-89
2023/10/28 10:10:50;;;;;;;9.57;2.30;;;23.80;67.20;;;;;;6262078;23;20004;-89
2023/10/28 10:13:16;;;;;;;9.45;2.00;;;24.00;67.60;;;;;;6268025;23;20084;-89
2023/10/28 10:16:03;;;;;;;8.95;2.40;;;24.00;67.60;;;;;;6260775;23;20000;-89
2023/10/28 10:18:39;;;;;;;8.13;2.10;;;24.00;67.40;;;;;;6251704;23;20339;-88
2023/10/28 10:21:12;;;;;;;12.93;3.33;;;24.10;66.20;;;;;;6224436;23;20040;-89
2023/10/28 10:23:43;;;;;;;10.50;2.33;;;24.20;66.70;;;;;;6249288;23;20019;-88
2023/10/28 10:26:22;;;;;;;7.72;2.05;;;24.30;65.70;;;;;;6249331;23;20004;-90
2023/10/28 10:28:48;;;;;;;8.43;1.85;;;24.40;65.50;;;;;;6249290;23;20000;-88
2023/10/28 10:31:18;;;;;;;8.27;2.03;;;24.50;65.00;;;;;;6250131;23;20008;-90
2023/10/28 10:33:43;;;;;;;7.75;1.88;;;24.60;64.50;;;;;;6259225;23;20037;-88
2023/10/28 10:36:17;;;;;;;5.43;1.50;;;24.60;64.40;;;;;;6264441;23;20025;-90
2023/10/28 10:38:43;;;;;;;10.38;2.00;;;24.70;64.30;;;;;;6250009;23;20004;-90
2023/10/28 10:41:10;;;;;;;9.65;1.80;;;24.80;64.20;;;;;;6250195;23;20006;-88
2023/10/28 10:43:38;;;;;;;15.32;2.38;;;24.70;64.30;;;;;;6249716;23;20083;-83
2023/10/28 10:46:04;;;;;;;9.65;1.70;;;24.70;64.30;;;;;;6246726;23;20054;-83
2023/10/28 10:48:33;;;;;;;13.82;6.28;;;24.70;64.20;;;;;;6246555;23;20008;-85
2023/10/28 10:51:00;;;;;;;9.98;3.10;;;24.70;64.60;;;;;;6246971;23;20522;-87
2023/10/28 10:53:26;;;;;;;9.30;2.50;;;24.80;64.80;;;;;;6247649;23;20007;-86
2023/10/28 10:55:51;;;;;;;9.50;2.28;;;24.80;64.70;;;;;;6248248;23;20458;-87
2023/10/28 10:58:18;;;;;;;11.13;2.33;;;24.80;64.70;;;;;;6249771;23;20000;-86
2023/10/28 11:00:55;;;;;;;13.18;2.17;;;24.80;64.70;;;;;;6249224;23;20406;-88
2023/10/28 11:03:21;;;;;;;9.43;2.10;;;24.80;64.70;;;;;;6249396;23;19996;-87
2023/10/28 11:05:47;;;;;;;10.80;2.17;;;24.90;64.70;;;;;;6248035;23;20032;-87
2023/10/28 11:08:14;;;;;;;14.23;2.53;;;25.00;64.80;;;;;;6247748;23;20004;-88
2023/10/28 11:10:40;;;;;;;11.13;2.15;;;24.90;64.50;;;;;;6247107;23;20023;-88
2023/10/28 11:13:07;;;;;;;8.05;1.65;;;24.80;64.50;;;;;;6247613;23;20521;-89
2023/10/28 11:15:34;;;;;;;9.70;1.70;;;24.70;64.60;;;;;;6251038;23;20008;-88
2023/10/28 11:18:00;;;;;;;11.45;2.10;;;24.50;64.60;;;;;;6249606;23;20001;-89
2023/10/28 11:20:25;;;;;;;8.70;2.17;;;24.60;64.40;;;;;;6248287;23;20074;-88
2023/10/28 11:22:51;;;;;;;11.90;1.92;;;24.70;65.00;;;;;;6247905;23;20004;-88
2023/10/28 11:25:20;;;;;;;11.35;2.08;;;24.80;64.20;;;;;;6247619;23;20011;-86
2023/10/28 11:27:51;;;;;;;12.40;2.17;;;24.90;64.40;;;;;;6246969;23;20303;-87
2023/10/28 11:30:18;;;;;;;10.98;2.05;;;25.00;64.40;;;;;;6248257;23;20046;-89
2023/10/28 11:32:44;;;;;;;7.80;1.42;;;25.20;63.70;;;;;;6247460;23;20039;-88
2023/10/28 11:35:11;;;;;;;12.18;2.40;;;25.30;63.10;;;;;;6250746;23;20050;-89
2023/10/28 11:37:39;;;;;;;8.75;2.25;;;25.40;62.90;;;;;;6248380;23;20334;-89
2023/10/28 11:40:05;;;;;;;7.45;1.90;;;25.60;62.60;;;;;;6248427;23;20016;-87
2023/10/28 11:42:33;;;;;;;8.52;1.92;;;25.50;62.40;;;;;;6248460;23;20011;-89
2023/10/28 11:45:04;;;;;;;9.70;2.33;;;25.40;63.10;;;;;;6247619;23;20071;-88
2023/10/28 11:47:30;;;;;;;10.05;2.08;;;25.30;63.30;;;;;;6249126;23;20000;-88
2023/10/28 11:49:57;;;;;;;10.90;2.13;;;25.20;63.60;;;;;;6248980;23;20307;-89
2023/10/28 12:04:35;;;;;;;11.30;2.58;;;25.30;63.90;;;;;;6269953;22;20504;-91
2023/10/28 12:07:01;;;;;;;17.00;2.33;;;25.30;64.50;;;;;;6278857;22;20007;-90
2023/10/28 12:09:35;;;;;;;8.68;2.15;;;25.20;64.60;;;;;;6282883;22;20015;-90
2023/10/28 12:12:02;;;;;;;19.63;7.70;;;25.20;64.20;;;;;;6281532;22;19999;-90
2023/10/28 12:14:28;;;;;;;31.80;19.25;;;25.30;63.60;;;;;;6280336;22;20007;-90
2023/10/28 12:16:53;;;;;;;13.27;2.25;;;25.30;63.30;;;;;;6279471;22;20426;-92
2023/10/28 12:19:19;;;;;;;12.95;3.83;;;25.40;62.90;;;;;;6279376;22;20311;-83
2023/10/28 12:21:45;;;;;;;9.40;2.20;;;25.30;63.00;;;;;;6276874;22;20031;-88
2023/10/28 12:24:11;;;;;;;12.38;2.55;;;25.30;63.20;;;;;;6279629;22;20000;-90
2023/10/28 12:26:37;;;;;;;14.05;2.50;;;25.10;63.30;;;;;;6281921;22;19999;-88
2023/10/28 12:29:04;;;;;;;9.55;2.40;;;25.10;63.50;;;;;;6280289;22;20464;-85
2023/10/28 12:31:32;;;;;;;9.57;2.63;;;25.10;63.40;;;;;;6277308;22;20027;-86
2023/10/28 12:33:58;;;;;;;11.48;3.08;;;25.10;63.30;;;;;;6278108;22;20011;-85
2023/10/28 12:36:23;;;;;;;13.52;3.00;;;25.30;63.30;;;;;;6278237;22;20429;-85
2023/10/28 12:38:49;;;;;;;14.75;2.67;;;25.40;63.20;;;;;;6278033;22;20000;-84
2023/10/28 12:41:15;;;;;;;10.43;1.95;;;25.50;63.10;;;;;;6277943;22;20445;-78
2023/10/28 12:43:41;;;;;;;9.98;2.60;;;25.60;62.40;;;;;;6278292;22;20003;-87
2023/10/28 12:46:07;;;;;;;8.38;1.73;;;25.60;62.60;;;;;;6250697;22;20023;-85
2023/10/28 12:48:33;;;;;;;9.23;1.90;;;25.60;62.10;;;;;;6278825;22;20000;-76